createdAt,value
2018-04-23T00:00:15.054Z,62.40
2018-04-23T00:05:16.584Z,62.40
2018-04-23T00:10:18.151Z,63.80
2018-04-23T00:15:19.687Z,63.90
2018-04-23T00:20:21.208Z,63.20
2018-04-23T00:25:22.737Z,62.80
2018-04-23T00:30:24.283Z,63.60
2018-04-23T00:35:25.863Z,63.50
2018-04-23T00:40:27.379Z,63.70
2018-04-23T00:45:28.887Z,64.40
2018-04-23T00:50:30.434Z,64.60
2018-04-23T00:55:32.741Z,63.60
2018-04-23T01:00:34.259Z,63.50
2018-04-23T01:05:35.874Z,64.60
2018-04-23T01:10:38.141Z,66.30
2018-04-23T01:15:40.411Z,65.60
2018-04-23T01:20:41.967Z,65.50
2018-04-23T01:25:43.544Z,65.60
2018-04-23T01:30:45.126Z,66.50
2018-04-23T01:35:46.650Z,65.90
2018-04-23T01:40:48.287Z,66.40
2018-04-23T01:45:50.570Z,68.30
2018-04-23T01:50:52.355Z,68.20
2018-04-23T01:55:53.966Z,68.30
2018-04-23T02:00:55.500Z,67.40
2018-04-23T02:05:57.017Z,66.30
2018-04-23T02:10:58.550Z,64.60
2018-04-23T02:16:00.072Z,63.60
2018-04-23T02:21:02.481Z,62.40
2018-04-23T02:26:04.020Z,62.30
2018-04-23T02:31:05.533Z,61.40
2018-04-23T02:36:07.056Z,61.60
2018-04-23T02:41:08.591Z,62.60
2018-04-23T02:46:10.139Z,62.50
2018-04-23T02:51:11.724Z,63.70
2018-04-23T02:56:13.269Z,63.90
2018-04-23T03:01:14.772Z,63.20
2018-04-23T03:06:16.279Z,63.20
2018-04-23T03:11:18.517Z,65.30
2018-04-23T03:16:20.032Z,65.30
2018-04-23T03:21:22.320Z,67.00
2018-04-23T03:26:24.674Z,67.00
2018-04-23T03:31:26.203Z,66.90
2018-04-23T03:36:27.702Z,68.40
2018-04-23T03:41:29.206Z,69.40
2018-04-23T03:46:31.576Z,70.30
2018-04-23T03:51:33.149Z,70.20
2018-04-23T03:56:35.410Z,72.50
2018-04-23T04:01:36.960Z,72.50
2018-04-23T04:06:38.521Z,72.30
2018-04-23T04:11:40.134Z,70.40
2018-04-23T04:16:53.763Z,71.00
2018-04-23T04:21:55.279Z,71.00
2018-04-23T04:27:01.168Z,71.00
2018-04-23T04:32:02.693Z,69.20
2018-04-23T04:37:04.218Z,69.70
2018-04-23T04:42:05.779Z,70.20
2018-04-23T04:47:07.297Z,67.20
2018-04-23T04:52:09.601Z,65.20
2018-04-23T04:57:11.970Z,66.00
2018-04-23T05:02:14.237Z,64.80
2018-04-23T05:07:15.768Z,64.80
2018-04-23T05:12:17.370Z,63.80
2018-04-23T05:17:19.071Z,63.00
2018-04-23T05:22:21.341Z,61.20
2018-04-23T05:27:22.870Z,61.10
2018-04-23T05:32:24.440Z,60.50
2018-04-23T05:37:26.015Z,60.20
2018-04-23T05:42:27.553Z,58.40
2018-04-23T05:47:29.113Z,56.60
2018-04-23T05:52:30.685Z,56.60
2018-04-23T05:57:32.264Z,57.20
2018-04-23T06:02:33.815Z,58.40
2018-04-23T06:07:35.385Z,58.00
2018-04-23T06:12:36.961Z,57.70
2018-04-23T06:17:38.483Z,58.40
2018-04-23T06:22:40.117Z,58.20
2018-04-23T06:27:41.690Z,59.30
2018-04-23T06:32:43.295Z,60.60
2018-04-23T06:37:44.934Z,62.60
2018-04-23T06:42:46.739Z,64.50
2018-04-23T06:47:48.344Z,64.60
2018-04-23T06:52:49.907Z,63.30
2018-04-23T06:57:52.192Z,57.70
2018-04-23T07:02:54.461Z,57.50
2018-04-23T07:07:56.751Z,57.80
2018-04-23T07:12:59.021Z,55.80
2018-04-23T07:18:00.732Z,55.80
2018-04-23T07:23:02.256Z,55.10
2018-04-23T07:28:03.810Z,55.00
2018-04-23T07:33:05.333Z,56.20
2018-04-23T07:38:06.945Z,55.00
2018-04-23T07:43:08.479Z,54.30
2018-04-23T07:48:10.037Z,54.00
2018-04-23T07:53:11.639Z,55.10
2018-04-23T07:58:13.225Z,55.80
2018-04-23T08:03:14.824Z,56.60
2018-04-23T08:08:17.263Z,53.10
2018-04-23T08:13:18.841Z,53.00
2018-04-23T08:18:20.376Z,52.20
2018-04-23T08:23:21.937Z,52.00
2018-04-23T08:28:23.516Z,54.20
2018-04-23T08:33:25.055Z,53.50
2018-04-23T08:38:27.359Z,50.10
2018-04-23T08:43:28.901Z,50.00
2018-04-23T08:48:30.451Z,49.90
2018-04-23T08:53:32.165Z,49.50
2018-04-23T08:58:34.475Z,47.80
2018-04-23T09:03:36.247Z,47.80
2018-04-23T09:08:37.776Z,48.90
2018-04-23T09:13:40.094Z,46.70
2018-04-23T09:18:41.655Z,46.70
2018-04-23T09:23:43.188Z,45.50
2018-04-23T09:28:46.621Z,47.00
2018-04-23T09:33:48.875Z,51.10
2018-04-23T09:38:50.382Z,51.00
2018-04-23T09:43:58.890Z,52.70
2018-04-23T09:49:01.184Z,53.70
2018-04-23T09:54:03.491Z,53.90
2018-04-23T09:59:05.044Z,53.90
2018-04-23T10:04:06.583Z,54.80
2018-04-23T10:09:08.202Z,54.40
2018-04-23T10:14:16.833Z,53.30
2018-04-23T10:19:18.531Z,52.00
2018-04-23T10:24:20.769Z,50.70
2018-04-23T10:29:23.063Z,49.00
2018-04-23T10:34:24.807Z,49.00
2018-04-23T10:39:26.378Z,47.80
2018-04-23T10:44:28.710Z,46.00
2018-04-23T10:49:30.348Z,45.90
2018-04-23T10:54:32.684Z,43.60
2018-04-23T10:59:34.316Z,43.60
2018-04-23T11:04:35.991Z,44.40
2018-04-23T11:09:37.688Z,44.00
2018-04-23T11:14:40.979Z,44.60
2018-04-23T11:19:42.614Z,46.10
2018-04-23T11:24:44.207Z,45.10
2018-04-23T11:29:45.736Z,45.30
2018-04-23T11:34:47.266Z,44.80
2018-04-23T11:39:48.838Z,42.40
2018-04-23T11:44:50.405Z,42.30
2018-04-23T11:49:51.983Z,42.80
2018-04-23T11:54:53.777Z,42.70
2018-04-23T11:59:55.403Z,41.60
2018-04-23T12:04:57.188Z,42.70
2018-04-23T12:09:58.788Z,44.90
2018-04-23T12:15:00.390Z,44.90
2018-04-23T12:20:02.191Z,45.00
2018-04-23T12:25:03.787Z,50.00
2018-04-23T12:30:05.329Z,53.00
2018-04-23T12:35:06.844Z,59.00
2018-04-23T12:40:08.517Z,59.40
2018-04-23T12:45:10.103Z,63.10
2018-04-23T12:50:12.449Z,52.30
2018-04-23T12:55:14.080Z,52.30
2018-04-23T13:00:15.627Z,47.10
2018-04-23T13:05:17.298Z,42.00
2018-04-23T13:10:19.593Z,39.00
2018-04-23T13:15:21.902Z,37.70
2018-04-23T13:20:23.461Z,37.70
2018-04-23T13:25:25.026Z,37.50
2018-04-23T13:30:27.352Z,36.70
2018-04-23T13:35:29.668Z,36.70
2018-04-23T13:40:31.219Z,35.40
2018-04-23T13:45:32.720Z,35.60
2018-04-23T13:50:34.309Z,37.00
2018-04-23T13:55:43.044Z,37.30
2018-04-23T14:00:44.626Z,37.00
2018-04-23T14:05:46.210Z,36.00
2018-04-23T14:10:47.801Z,36.00
2018-04-23T14:15:49.364Z,36.80
2018-04-23T14:20:50.955Z,38.30
2018-04-23T14:25:52.492Z,37.10
2018-04-23T14:30:54.070Z,36.90
2018-04-23T14:35:55.637Z,38.40
2018-04-23T14:40:57.230Z,36.80
2018-04-23T14:45:58.837Z,36.80
2018-04-23T14:51:00.425Z,36.10
2018-04-23T14:56:01.999Z,35.90
2018-04-23T15:01:03.602Z,36.60
2018-04-23T15:06:05.201Z,36.70
2018-04-23T15:11:06.931Z,37.50
2018-04-23T15:16:08.543Z,36.00
2018-04-23T15:21:10.195Z,36.30
2018-04-23T15:26:12.560Z,35.60
2018-04-23T15:31:14.163Z,35.50
2018-04-23T15:36:16.709Z,37.80
2018-04-23T15:41:18.338Z,37.80
2018-04-23T15:46:19.955Z,38.00
2018-04-23T15:51:21.549Z,38.50
2018-04-23T15:56:23.160Z,38.50
2018-04-23T16:01:25.039Z,38.50
2018-04-23T16:06:26.609Z,39.30
2018-04-23T16:11:28.157Z,37.70
2018-04-23T16:16:29.699Z,38.10
2018-04-23T16:21:31.999Z,36.30
2018-04-23T16:26:34.323Z,38.70
2018-04-23T16:31:35.917Z,38.50
2018-04-23T16:36:37.812Z,40.10
2018-04-23T16:41:39.380Z,40.60
2018-04-23T16:46:40.914Z,41.60
2018-04-23T16:51:42.428Z,40.30
2018-04-23T16:56:44.799Z,40.40
2018-04-23T17:01:46.480Z,40.40
2018-04-23T17:06:48.060Z,40.30
2018-04-23T17:11:50.421Z,39.20
2018-04-23T17:16:52.076Z,39.10
2018-04-23T17:21:53.712Z,38.60
2018-04-23T17:26:55.751Z,39.90
2018-04-23T17:31:57.435Z,39.70
2018-04-23T17:36:59.755Z,40.30
2018-04-23T17:42:01.479Z,40.20
2018-04-23T17:47:03.264Z,39.10
2018-04-23T17:52:04.818Z,39.20
2018-04-23T17:57:06.410Z,37.60
2018-04-23T18:02:08.731Z,38.30
2018-04-23T18:07:10.309Z,38.20
2018-04-23T18:12:12.067Z,39.30
2018-04-23T18:17:13.724Z,39.20
2018-04-23T18:22:16.072Z,40.00
2018-04-23T18:27:17.680Z,40.00
2018-04-23T18:32:19.273Z,40.90
2018-04-23T18:37:20.852Z,41.30
2018-04-23T18:42:22.421Z,41.20
2018-04-23T18:47:23.900Z,41.80
2018-04-23T18:52:25.456Z,42.70
2018-04-23T18:57:27.092Z,44.00
2018-04-23T19:02:29.451Z,44.70
2018-04-23T19:07:31.137Z,44.60
2018-04-23T19:12:34.187Z,45.10
2018-04-23T19:17:35.753Z,45.10
2018-04-23T19:22:37.402Z,45.40
2018-04-23T19:27:39.221Z,46.90
2018-04-23T19:32:40.787Z,47.80
2018-04-23T19:37:42.391Z,46.70
2018-04-23T19:42:44.832Z,46.40
2018-04-23T19:47:46.486Z,46.40
2018-04-23T19:52:48.146Z,47.50
2018-04-23T19:57:49.755Z,47.90
2018-04-23T20:02:51.333Z,48.20
2018-04-23T20:07:52.914Z,48.60
2018-04-23T20:12:54.536Z,48.80
2018-04-23T20:17:56.179Z,49.50
2018-04-23T20:22:58.621Z,50.60
2018-04-23T20:28:00.163Z,49.90
2018-04-23T20:33:01.848Z,50.30
2018-04-23T20:38:03.814Z,50.80
2018-04-23T20:43:05.361Z,50.70
2018-04-23T20:48:07.047Z,51.30
2018-04-23T20:53:08.990Z,51.70
2018-04-23T20:58:10.676Z,51.80
2018-04-23T21:03:13.003Z,53.20
2018-04-23T21:08:14.591Z,53.10
2018-04-23T21:13:16.272Z,52.90
2018-04-23T21:18:18.075Z,53.20
2018-04-23T21:23:19.695Z,53.50
2018-04-23T21:28:21.277Z,53.10
2018-04-23T21:33:22.825Z,54.30
2018-04-23T21:38:24.410Z,55.70
2018-04-23T21:43:26.020Z,56.00
2018-04-23T21:48:27.544Z,55.90
2018-04-23T21:53:29.183Z,56.20
2018-04-23T21:58:30.860Z,57.40
2018-04-23T22:03:32.414Z,58.00
2018-04-23T22:08:33.938Z,58.10
2018-04-23T22:13:35.503Z,57.30
2018-04-23T22:18:37.041Z,56.40
2018-04-23T22:23:38.787Z,57.00
2018-04-23T22:28:40.420Z,56.30
2018-04-23T22:33:41.960Z,55.60
2018-04-23T22:38:43.568Z,56.10
2018-04-23T22:43:45.842Z,57.80
2018-04-23T22:48:47.510Z,57.70
2018-04-23T22:53:49.184Z,57.60
2018-04-23T22:58:50.774Z,58.80
2018-04-23T23:03:53.113Z,58.70
2018-04-23T23:08:54.669Z,58.60
2018-04-23T23:13:56.176Z,58.60
2018-04-23T23:18:58.482Z,60.40
2018-04-23T23:23:59.986Z,59.90
2018-04-23T23:29:01.531Z,60.40
2018-04-23T23:34:03.111Z,61.60
2018-04-23T23:39:05.658Z,62.20
2018-04-23T23:44:07.310Z,63.60
2018-04-23T23:49:08.895Z,64.50
2018-04-23T23:54:10.492Z,65.20
2018-04-23T23:59:12.176Z,66.20
